Time;durP1;ratioP1;P1;durP2;ratioP2;P2;SDS_P1;SDS_P2;PMS_P1;PMS_P2;Temp;Humidity;BMP_temperature;BMP_pressure;BME280_temperature;BME280_humidity;BME280_pressure;Samples;Min_cycle;Max_cycle;Signal;HPM_P1;HPM_P2
2022/10/28 04:35:17;;;;;;;27.58;15.00;;;;;;;;;;6341260;22;20023;-96
2022/10/28 04:44:13;;;;;;;27.90;13.50;;;;;;;;;;6195858;23;20043;-96
2022/10/28 04:53:04;;;;;;;24.58;12.68;;;;;;;;;;6355045;22;20009;-96
2022/10/28 04:55:47;;;;;;;;;;;;;;;;;;;;;
2022/10/28 04:58:38;;;;;;;27.10;12.98;;;;;;;;;;6357079;22;20018;-96
2022/10/28 05:01:16;;;;;;;30.73;14.00;;;;;;;;;;6328997;22;20021;-96
2022/10/28 05:06:32;;;;;;;28.42;13.25;;;;;;;;;;6343113;22;20030;-96
2022/10/28 05:09:15;;;;;;;29.77;13.98;;;;;;;;;;6323722;22;20350;-96
2022/10/28 05:12:11;;;;;;;31.13;12.90;;;;;;;;;;6321315;22;20002;-96
2022/10/28 05:14:55;;;;;;;28.52;12.50;;;;;;;;;;6344441;22;20081;-96
2022/10/28 05:17:22;;;;;;;;;;;;;;;;;;6320674;22;20026;-96
2022/10/28 05:19:53;;;;;;;31.25;11.80;;;;;;;;;;6322588;22;19903;-96
2022/10/28 05:22:27;;;;;;;30.52;12.35;;;;;;;;;;6321676;22;20003;-96
2022/10/28 05:24:56;;;;;;;29.83;13.35;;;;;;;;;;6321758;22;20011;-96
2022/10/28 05:27:50;;;;;;;34.15;13.40;;;;;;;;;;6322234;22;20419;-96
2022/10/28 05:30:48;;;;;;;31.73;13.50;;;;;;;;;;6350744;22;20014;-96
2022/10/28 05:33:16;;;;;;;25.83;13.20;;;;;;;;;;6312054;22;19998;-96
2022/10/28 05:35:42;;;;;;;36.47;13.77;;;;;;;;;;6323152;22;20030;-95
2022/10/28 05:38:20;;;;;;;29.88;13.27;;;;;;;;;;6322235;22;20002;-96
2022/10/28 05:40:58;;;;;;;;;;;;;;;;;;;;;
2022/10/28 05:43:39;;;;;;;28.70;12.90;;;;;;;;;;6226991;22;20048;-95
2022/10/28 05:46:08;;;;;;;29.52;12.45;;;;;;;;;;6197050;23;20007;-95
2022/10/28 05:48:58;;;;;;;32.58;14.43;;;;;;;;;;6322714;22;20346;-96
2022/10/28 05:51:24;;;;;;;34.67;12.80;;;;;;;;;;6317425;22;20003;-96
2022/10/28 05:53:53;;;;;;;32.45;14.30;;;;;;;;;;6319778;22;20006;-96
2022/10/28 05:56:19;;;;;;;34.30;15.15;;;;;;;;;;6321160;22;20006;-96
2022/10/28 05:59:04;;;;;;;36.60;13.75;;;;;;;;;;6352805;22;20432;-96
2022/10/28 06:01:32;;;;;;;37.75;14.80;;;;;;;;;;6320225;22;19999;-96
2022/10/28 06:04:04;;;;;;;31.95;13.10;;;;;;;;;;6323401;22;20021;-96
2022/10/28 06:06:32;;;;;;;31.05;13.02;;;;;;;;;;6318931;22;20347;-96
2022/10/28 06:09:01;;;;;;;32.90;14.93;;;;;;;;;;6321178;22;20021;-96
2022/10/28 06:11:27;;;;;;;33.60;13.90;;;;;;;;;;6320395;22;20028;-96
2022/10/28 06:13:56;;;;;;;39.80;14.55;;;;;;;;;;6319856;22;20447;-96
2022/10/28 06:16:50;;;;;;;34.28;13.30;;;;;;;;;;6326040;22;19991;-94
2022/10/28 06:27:30;;;;;;;47.58;14.15;;;;;;;;;;6312290;22;20094;-96
2022/10/28 06:33:13;;;;;;;38.03;13.73;;;;;;;;;;6310505;22;20056;-94
2022/10/28 06:39:14;;;;;;;31.42;13.00;;;;;;;;;;6299514;22;20033;-94
2022/10/28 06:41:48;;;;;;;36.63;15.07;;;;;;;;;;6323677;22;19998;-93
2022/10/28 06:44:34;;;;;;;41.42;16.33;;;;;;;;;;6349878;22;20026;-94
2022/10/28 06:50:12;;;;;;;48.22;15.40;;;;;;;;;;6336896;22;20015;-91
2022/10/28 06:55:18;;;;;;;41.10;14.57;;;;;;;;;;6272312;22;20082;-95
2022/10/28 07:06:32;;;;;;;59.17;20.80;;;;;;;;;;6313680;22;20090;-93
2022/10/28 07:08:58;;;;;;;61.45;18.58;;;;;;;;;;6286282;22;20007;-91
2022/10/28 07:11:24;;;;;;;51.05;17.33;;;;;;;;;;6289131;22;20366;-91
2022/10/28 07:13:50;;;;;;;56.72;21.17;;;;;;;;;;6291383;22;20003;-92
2022/10/28 07:16:20;;;;;;;44.25;16.65;;;;;;;;;;6296077;22;20003;-91
2022/10/28 07:18:46;;;;;;;44.90;17.95;;;;;;;;;;6299306;22;20070;-91
2022/10/28 07:21:13;;;;;;;45.72;17.88;;;;;;;;;;6290910;22;20000;-94
2022/10/28 07:23:42;;;;;;;39.70;15.25;;;;;;;;;;6289604;22;20018;-95
2022/10/28 07:26:17;;;;;;;45.67;16.23;;;;;;;;;;6287210;22;20003;-95
2022/10/28 07:31:12;;;;;;;33.83;13.55;;;;;;;;;;6312398;22;20019;-92
2022/10/28 07:33:39;;;;;;;34.90;13.75;;;;;;;;;;6288469;22;20421;-91
2022/10/28 07:36:08;;;;;;;31.30;13.63;;;;;;;;;;6284215;22;20014;-93
2022/10/28 07:38:34;;;;;;;34.45;13.55;;;;;;;;;;6285399;22;20003;-92
2022/10/28 07:41:28;;;;;;;33.22;13.77;;;;;;;;;;6284382;22;20030;-91
2022/10/28 07:43:54;;;;;;;;;;;;;;;;;;6286545;22;20018;-91
2022/10/28 07:46:21;;;;;;;29.55;11.63;;;;;;;;;;6284426;22;19949;-93
2022/10/28 07:48:47;;;;;;;31.02;13.35;;;;;;;;;;6285459;22;20007;-91
2022/10/28 07:51:17;;;;;;;27.13;11.90;;;;;;;;;;6312867;22;20008;-95
2022/10/28 07:53:43;;;;;;;32.05;12.57;;;;;;;;;;6283328;22;20341;-90
2022/10/28 07:56:20;;;;;;;31.92;14.18;;;;;;;;;;6281486;22;20328;-92
2022/10/28 07:58:47;;;;;;;33.03;13.77;;;;;;;;;;6286544;22;20011;-93
2022/10/28 08:01:18;;;;;;;35.28;14.52;;;;;;;;;;6288396;22;20008;-93
2022/10/28 08:03:46;;;;;;;40.70;15.65;;;;;;;;;;6284986;22;20073;-91
2022/10/28 08:06:17;;;;;;;30.70;13.75;;;;;;;;;;6286180;22;19999;-94
2022/10/28 08:08:45;;;;;;;33.92;13.02;;;;;;;;;;6286754;22;20013;-92
2022/10/28 08:11:12;;;;;;;34.00;15.00;;;;;;;;;;6312696;22;20083;-89
2022/10/28 08:13:40;;;;;;;36.13;13.52;;;;;;;;;;6311297;22;20011;-91
2022/10/28 08:16:06;;;;;;;30.55;13.07;;;;;;;;;;6287115;22;20023;-92
2022/10/28 08:18:33;;;;;;;32.10;12.95;;;;;;;;;;6284616;22;20065;-93
2022/10/28 08:21:03;;;;;;;38.25;13.38;;;;;;;;;;6288220;22;20027;-93
2022/10/28 08:23:32;;;;;;;38.10;14.43;;;;;;;;;;6287378;22;20064;-93
2022/10/28 08:25:58;;;;;;;35.67;14.02;;;;;;;;;;6285261;22;20010;-95
2022/10/28 08:28:50;;;;;;;44.95;14.38;;;;;;;;;;6288147;22;20004;-91
2022/10/28 08:31:18;;;;;;;28.77;13.80;;;;;;;;;;6288675;22;20003;-93
2022/10/28 08:34:06;;;;;;;;;;;;;;;;;;;;;
2022/10/28 08:36:38;;;;;;;32.22;13.27;;;;;;;;;;6314825;22;20083;-93
2022/10/28 08:39:07;;;;;;;37.78;16.60;;;;;;;;;;6284421;22;20049;-93
2022/10/28 08:45:09;;;;;;;40.17;16.17;;;;;;;;;;6247562;23;20046;-93
2022/10/28 08:47:35;;;;;;;39.75;14.35;;;;;;;;;;6217441;23;20000;-93
2022/10/28 08:53:12;;;;;;;31.08;13.63;;;;;;;;;;6248759;23;20507;-92
2022/10/28 08:56:03;;;;;;;30.15;13.13;;;;;;;;;;6226306;23;20008;-94
2022/10/28 08:58:55;;;;;;;55.00;19.90;;;;;;;;;;6211669;23;20016;-92
2022/10/28 09:26:35;;;;;;;32.72;15.00;;;;;;;;;;6190636;23;20089;-95
2022/10/28 09:29:21;;;;;;;39.45;15.23;;;;;;;;;;6183866;23;19992;-93
2022/10/28 09:50:38;;;;;;;28.17;13.57;;;;;;;;;;6085674;23;20204;-93
2022/10/28 09:55:58;;;;;;;22.90;11.38;;;;;;;;;;6344552;22;20018;-95
2022/10/28 10:20:59;;;;;;;20.70;10.30;;;;;;;;;;6255291;23;20031;-91
2022/10/28 10:23:45;;;;;;;19.92;10.90;;;;;;;;;;6252984;23;20520;-90
2022/10/28 10:26:40;;;;;;;22.35;11.32;;;;;;;;;;6228022;23;20015;-93
2022/10/28 10:35:27;;;;;;;19.90;10.52;;;;;;;;;;6340453;22;20053;-93
2022/10/28 10:37:55;;;;;;;24.85;11.45;;;;;;;;;;6316962;22;20086;-88
2022/10/28 15:08:27;;;;;;;41.95;19.38;;;;;;;;;;6337145;22;20091;-93
2022/10/28 15:10:56;;;;;;;42.75;20.50;;;;;;;;;;6315670;22;20007;-95
2022/10/28 15:13:50;;;;;;;38.95;19.35;;;;;;;;;;6316215;22;19999;-93
2022/10/28 15:16:16;;;;;;;;;;;;;;;;;;6314448;22;20078;-89
2022/10/28 15:18:47;;;;;;;32.53;16.05;;;;;;;;;;6314735;22;20312;-91
2022/10/28 15:21:15;;;;;;;37.20;17.25;;;;;;;;;;6313697;22;20073;-94
2022/10/28 15:23:42;;;;;;;38.42;18.55;;;;;;;;;;6313802;22;20056;-95
2022/10/28 15:26:15;;;;;;;33.78;18.00;;;;;;;;;;6314168;22;20060;-94
2022/10/28 15:28:42;;;;;;;36.63;17.33;;;;;;;;;;6313788;22;20003;-96
2022/10/28 15:31:08;;;;;;;33.40;16.55;;;;;;;;;;6313766;22;20064;-95
2022/10/28 15:33:38;;;;;;;35.28;16.80;;;;;;;;;;6312904;22;20003;-95
2022/10/28 15:36:07;;;;;;;33.75;17.10;;;;;;;;;;6313899;22;20030;-93
2022/10/28 15:38:38;;;;;;;36.75;17.73;;;;;;;;;;6313847;22;20007;-95
2022/10/28 15:41:22;;;;;;;41.65;20.50;;;;;;;;;;6314204;22;20003;-96
2022/10/28 15:44:21;;;;;;;40.60;19.42;;;;;;;;;;6313932;22;20003;-94
2022/10/28 15:46:48;;;;;;;46.63;21.48;;;;;;;;;;6230362;22;20332;-94
2022/10/28 15:49:33;;;;;;;42.78;22.35;;;;;;;;;;6313400;22;20458;-94
2022/10/28 15:52:17;;;;;;;39.08;17.40;;;;;;;;;;6314087;22;20383;-95
2022/10/28 15:54:57;;;;;;;44.08;20.35;;;;;;;;;;6313416;22;20007;-93
2022/10/28 15:57:25;;;;;;;36.78;19.55;;;;;;;;;;6313580;22;20416;-94
2022/10/28 16:00:09;;;;;;;37.55;19.23;;;;;;;;;;6313335;22;20014;-95
2022/10/28 16:02:40;;;;;;;35.13;17.85;;;;;;;;;;6314231;22;20021;-94
2022/10/28 16:05:26;;;;;;;38.55;18.13;;;;;;;;;;6313435;22;20015;-94
2022/10/28 16:07:52;;;;;;;39.42;17.92;;;;;;;;;;6313100;22;20040;-94
2022/10/28 16:10:18;;;;;;;36.05;16.17;;;;;;;;;;6313557;22;20009;-94
2022/10/28 16:12:44;;;;;;;40.80;17.38;;;;;;;;;;6313443;22;20078;-95
2022/10/28 16:15:15;;;;;;;41.08;18.85;;;;;;;;;;6313194;22;20018;-94
2022/10/28 16:17:42;;;;;;;37.83;18.27;;;;;;;;;;6313422;22;20013;-94
2022/10/28 16:20:13;;;;;;;34.42;16.42;;;;;;;;;;6313701;22;20003;-95
2022/10/28 16:22:39;;;;;;;35.13;17.38;;;;;;;;;;6313959;22;20371;-94
2022/10/28 16:25:12;;;;;;;36.25;16.98;;;;;;;;;;6313797;22;20449;-94
2022/10/28 16:27:39;;;;;;;35.22;17.95;;;;;;;;;;6314156;22;19998;-95
2022/10/28 16:30:05;;;;;;;35.97;19.00;;;;;;;;;;6313206;22;20007;-93
2022/10/28 16:32:37;;;;;;;32.70;17.55;;;;;;;;;;6314228;22;20027;-94
2022/10/28 16:35:07;;;;;;;29.90;16.50;;;;;;;;;;6313249;22;20007;-96
2022/10/28 16:37:34;;;;;;;30.85;16.15;;;;;;;;;;6313525;22;20022;-93
2022/10/28 16:40:00;;;;;;;43.30;17.90;;;;;;;;;;6312730;22;20038;-95
2022/10/28 16:42:26;;;;;;;33.75;16.40;;;;;;;;;;6313226;22;20006;-94
2022/10/28 16:44:52;;;;;;;30.40;16.00;;;;;;;;;;6313213;22;20063;-95
2022/10/28 16:47:20;;;;;;;34.17;17.60;;;;;;;;;;6313066;22;20003;-91
2022/10/28 16:49:47;;;;;;;30.77;15.77;;;;;;;;;;6313576;22;20022;-92
2022/10/28 16:52:15;;;;;;;26.15;13.38;;;;;;;;;;6313072;22;20003;-94
2022/10/28 16:54:41;;;;;;;29.42;14.93;;;;;;;;;;6313220;22;20026;-91
2022/10/28 16:57:07;;;;;;;30.52;14.82;;;;;;;;;;6313309;22;19995;-94
2022/10/28 16:59:33;;;;;;;26.27;14.75;;;;;;;;;;6315362;22;20515;-93
2022/10/28 17:01:59;;;;;;;37.30;16.13;;;;;;;;;;6315003;22;20420;-92
2022/10/28 17:04:25;;;;;;;35.88;16.95;;;;;;;;;;6315513;22;20017;-93
2022/10/28 17:06:52;;;;;;;32.42;14.68;;;;;;;;;;6314644;22;20022;-92
2022/10/28 17:09:18;;;;;;;29.38;14.52;;;;;;;;;;6315358;22;20313;-89
2022/10/28 17:11:44;;;;;;;29.65;14.38;;;;;;;;;;6314809;22;19999;-93
2022/10/28 17:14:10;;;;;;;32.28;15.13;;;;;;;;;;6314921;22;20030;-91
2022/10/28 17:16:37;;;;;;;34.78;15.43;;;;;;;;;;6314470;22;20488;-92
2022/10/28 17:19:03;;;;;;;32.63;16.05;;;;;;;;;;6314664;22;20081;-92
2022/10/28 17:21:29;;;;;;;31.05;15.18;;;;;;;;;;6314865;22;20475;-93
2022/10/28 17:23:56;;;;;;;30.20;16.67;;;;;;;;;;6314874;22;20006;-92
2022/10/28 17:26:22;;;;;;;29.77;14.73;;;;;;;;;;6315150;22;20054;-91
2022/10/28 17:28:51;;;;;;;32.47;15.98;;;;;;;;;;6315454;22;20079;-92
2022/10/28 17:31:19;;;;;;;31.17;14.45;;;;;;;;;;6315757;22;20002;-94
2022/10/28 17:33:45;;;;;;;35.85;18.75;;;;;;;;;;6315346;22;20003;-92
2022/10/28 17:36:11;;;;;;;33.50;16.20;;;;;;;;;;6315307;22;20082;-95
2022/10/28 17:38:38;;;;;;;34.25;16.40;;;;;;;;;;6348874;22;19987;-90
2022/10/28 17:41:04;;;;;;;31.27;17.55;;;;;;;;;;6341673;22;19987;-90
2022/10/28 17:43:30;;;;;;;34.80;17.27;;;;;;;;;;6331003;22;20094;-94
2022/10/28 17:46:03;;;;;;;40.92;19.50;;;;;;;;;;6317066;22;20010;-92
2022/10/28 17:48:29;;;;;;;40.05;18.73;;;;;;;;;;6316515;22;20159;-93
2022/10/28 17:50:55;;;;;;;33.83;17.83;;;;;;;;;;6314237;22;20070;-91
2022/10/28 17:53:21;;;;;;;32.60;17.38;;;;;;;;;;6314144;22;20026;-90
2022/10/28 17:56:01;;;;;;;36.40;17.80;;;;;;;;;;6314349;22;20055;-92
2022/10/28 17:58:27;;;;;;;31.25;16.27;;;;;;;;;;6314149;22;20009;-92
2022/10/28 18:01:04;;;;;;;30.98;16.55;;;;;;;;;;6313613;22;20070;-93
2022/10/28 18:03:33;;;;;;;33.63;16.73;;;;;;;;;;6314247;22;20007;-93
2022/10/28 18:06:03;;;;;;;33.63;15.82;;;;;;;;;;6314909;22;20003;-93
2022/10/28 18:08:33;;;;;;;25.90;14.10;;;;;;;;;;6313995;22;20016;-92
2022/10/28 18:10:59;;;;;;;32.22;17.83;;;;;;;;;;6313769;22;20003;-93
2022/10/28 18:13:26;;;;;;;33.25;15.85;;;;;;;;;;6314366;22;20006;-94
2022/10/28 18:15:52;;;;;;;29.58;16.05;;;;;;;;;;6313698;22;20060;-89
2022/10/28 18:18:25;;;;;;;32.22;17.27;;;;;;;;;;6314120;22;20018;-91
2022/10/28 18:20:54;;;;;;;32.95;17.15;;;;;;;;;;6313883;22;20450;-92
2022/10/28 18:23:24;;;;;;;38.67;20.05;;;;;;;;;;6314295;22;20003;-92
2022/10/28 18:25:59;;;;;;;47.90;25.15;;;;;;;;;;6313940;22;20011;-92
2022/10/28 18:28:26;;;;;;;46.80;25.05;;;;;;;;;;6314407;22;20481;-95
2022/10/28 18:30:52;;;;;;;45.15;20.75;;;;;;;;;;6314203;22;20007;-93
2022/10/28 18:33:18;;;;;;;39.70;20.15;;;;;;;;;;6314291;22;20002;-94
2022/10/28 18:35:44;;;;;;;39.88;20.17;;;;;;;;;;6314579;22;20002;-92
2022/10/28 18:38:10;;;;;;;41.25;20.73;;;;;;;;;;6313962;22;20009;-92
2022/10/28 18:40:37;;;;;;;36.72;18.50;;;;;;;;;;6314344;22;20060;-92
2022/10/28 18:43:03;;;;;;;35.40;18.83;;;;;;;;;;6314248;22;20432;-92
2022/10/28 18:45:29;;;;;;;37.38;19.50;;;;;;;;;;6314225;22;20037;-91
2022/10/28 18:47:55;;;;;;;36.28;19.38;;;;;;;;;;6314283;22;20016;-92
2022/10/28 18:50:21;;;;;;;41.35;20.67;;;;;;;;;;6314490;22;20007;-93
2022/10/28 18:52:47;;;;;;;49.08;24.80;;;;;;;;;;6313421;22;20438;-91
2022/10/28 18:55:13;;;;;;;45.28;21.75;;;;;;;;;;6313437;22;19999;-93
2022/10/28 18:57:39;;;;;;;40.85;20.15;;;;;;;;;;6314963;22;20014;-91
2022/10/28 19:00:06;;;;;;;39.78;20.70;;;;;;;;;;6313703;22;20007;-93
2022/10/28 19:02:32;;;;;;;36.60;18.48;;;;;;;;;;6314174;22;20324;-94
2022/10/28 19:04:58;;;;;;;35.88;18.15;;;;;;;;;;6313841;22;20011;-92
2022/10/28 19:07:24;;;;;;;34.67;17.48;;;;;;;;;;6313518;22;20025;-91
2022/10/28 19:09:50;;;;;;;36.67;16.40;;;;;;;;;;6313430;22;20443;-91
2022/10/28 19:12:16;;;;;;;33.63;16.73;;;;;;;;;;6313987;22;20002;-92
2022/10/28 19:14:49;;;;;;;34.47;16.75;;;;;;;;;;6313795;22;20042;-93
2022/10/28 19:17:15;;;;;;;30.73;15.52;;;;;;;;;;6314555;22;19999;-93
2022/10/28 19:19:41;;;;;;;32.42;14.80;;;;;;;;;;6313266;22;20038;-93
2022/10/28 19:22:07;;;;;;;31.23;16.92;;;;;;;;;;6313520;22;19999;-93
2022/10/28 19:24:34;;;;;;;30.38;15.30;;;;;;;;;;6313458;22;20010;-91
2022/10/28 19:27:00;;;;;;;30.75;17.00;;;;;;;;;;6313887;22;20057;-92
2022/10/28 19:29:26;;;;;;;30.67;15.38;;;;;;;;;;6313688;22;20057;-93
2022/10/28 19:31:52;;;;;;;35.35;17.48;;;;;;;;;;6313897;22;20328;-92
2022/10/28 19:34:20;;;;;;;32.35;17.60;;;;;;;;;;6315299;22;20056;-93
2022/10/28 19:36:46;;;;;;;40.67;18.95;;;;;;;;;;6316166;22;20032;-94
2022/10/28 19:39:12;;;;;;;38.38;17.25;;;;;;;;;;6313970;22;20006;-94
2022/10/28 19:41:38;;;;;;;36.17;18.10;;;;;;;;;;6314008;22;20002;-94
2022/10/28 19:44:04;;;;;;;37.25;17.55;;;;;;;;;;6313579;22;20439;-94
2022/10/28 19:46:32;;;;;;;40.80;18.33;;;;;;;;;;6313872;22;20017;-93
2022/10/28 19:48:59;;;;;;;36.25;18.33;;;;;;;;;;6314188;22;19999;-94
2022/10/28 19:51:29;;;;;;;34.35;18.33;;;;;;;;;;6314608;22;20025;-95
2022/10/28 19:54:03;;;;;;;33.08;16.67;;;;;;;;;;6314093;22;20002;-93
2022/10/28 19:56:31;;;;;;;31.73;16.08;;;;;;;;;;6313679;22;20010;-95
2022/10/28 19:58:58;;;;;;;34.00;16.15;;;;;;;;;;6312977;22;20014;-94
2022/10/28 20:01:25;;;;;;;35.30;18.15;;;;;;;;;;6314188;22;20029;-94
2022/10/28 20:03:52;;;;;;;36.13;17.70;;;;;;;;;;6314010;22;20014;-92
2022/10/28 20:06:20;;;;;;;31.95;17.02;;;;;;;;;;6313832;22;20002;-94
2022/10/28 20:08:46;;;;;;;36.30;15.43;;;;;;;;;;6313667;22;20015;-93
2022/10/28 20:11:17;;;;;;;33.70;17.33;;;;;;;;;;6314376;22;20450;-94
2022/10/28 20:13:44;;;;;;;41.25;19.67;;;;;;;;;;6314146;22;20026;-93
2022/10/28 20:16:11;;;;;;;42.60;20.10;;;;;;;;;;6313573;22;20038;-94
2022/10/28 20:18:38;;;;;;;38.60;18.90;;;;;;;;;;6313772;22;20007;-90
2022/10/28 20:21:14;;;;;;;34.40;18.55;;;;;;;;;;6313546;22;20339;-94
2022/10/28 20:23:40;;;;;;;38.13;19.05;;;;;;;;;;6313453;22;20006;-93
2022/10/28 20:26:07;;;;;;;39.03;20.73;;;;;;;;;;6313626;22;20018;-92
2022/10/28 20:28:33;;;;;;;37.80;19.15;;;;;;;;;;6315863;22;20082;-93
2022/10/28 20:31:01;;;;;;;34.67;18.23;;;;;;;;;;6314152;22;20459;-93
2022/10/28 20:33:27;;;;;;;34.17;17.52;;;;;;;;;;6315238;22;20005;-92
2022/10/28 20:35:54;;;;;;;41.00;17.73;;;;;;;;;;6316141;22;20066;-94
2022/10/28 20:38:20;;;;;;;42.10;17.67;;;;;;;;;;6315777;22;20086;-93
2022/10/28 20:40:54;;;;;;;36.65;16.98;;;;;;;;;;6315911;22;20006;-92
2022/10/28 20:43:22;;;;;;;38.80;18.13;;;;;;;;;;6315770;22;20003;-94
2022/10/28 20:45:53;;;;;;;38.95;18.38;;;;;;;;;;6315765;22;20037;-95
2022/10/28 20:48:21;;;;;;;34.83;16.15;;;;;;;;;;6315634;22;20465;-93
2022/10/28 20:50:54;;;;;;;38.28;18.10;;;;;;;;;;6315527;22;20007;-92
2022/10/28 20:53:22;;;;;;;38.17;18.85;;;;;;;;;;6315525;22;20002;-93
2022/10/28 20:55:50;;;;;;;36.70;18.55;;;;;;;;;;6315912;22;20006;-90
2022/10/28 20:58:16;;;;;;;39.65;18.92;;;;;;;;;;6316063;22;20002;-93
2022/10/28 21:00:42;;;;;;;48.17;22.60;;;;;;;;;;6316121;22;20003;-93
2022/10/28 21:03:09;;;;;;;43.70;22.02;;;;;;;;;;6315608;22;20016;-92
2022/10/28 21:05:35;;;;;;;38.28;19.95;;;;;;;;;;6316538;22;20435;-92
2022/10/28 21:08:01;;;;;;;47.75;22.13;;;;;;;;;;6332622;22;20006;-93
2022/10/28 21:10:28;;;;;;;37.80;19.85;;;;;;;;;;6340721;22;20013;-92
2022/10/28 21:12:54;;;;;;;45.88;21.65;;;;;;;;;;6322960;22;20028;-93
2022/10/28 21:15:21;;;;;;;43.40;21.45;;;;;;;;;;6322116;22;20014;-93
2022/10/28 21:17:47;;;;;;;41.47;20.60;;;;;;;;;;6315375;22;20022;-93
2022/10/28 21:20:13;;;;;;;41.90;21.48;;;;;;;;;;6315228;22;20450;-94
2022/10/28 21:22:39;;;;;;;42.22;20.00;;;;;;;;;;6314990;22;20009;-94
2022/10/28 21:25:05;;;;;;;42.25;20.70;;;;;;;;;;6314748;22;20034;-94
2022/10/28 21:27:33;;;;;;;39.25;20.17;;;;;;;;;;6315477;22;20003;-94
2022/10/28 21:29:59;;;;;;;43.25;22.00;;;;;;;;;;6314352;22;20002;-94
2022/10/28 21:32:25;;;;;;;41.75;21.75;;;;;;;;;;6315352;22;20084;-95
2022/10/28 21:34:52;;;;;;;54.83;22.35;;;;;;;;;;6314812;22;20011;-94
2022/10/28 21:37:18;;;;;;;56.63;25.90;;;;;;;;;;6315829;22;19999;-94
2022/10/28 21:39:47;;;;;;;48.47;24.58;;;;;;;;;;6314859;22;20005;-94
2022/10/28 21:42:13;;;;;;;43.75;21.98;;;;;;;;;;6314665;22;20450;-94
2022/10/28 21:44:40;;;;;;;51.13;23.20;;;;;;;;;;6314469;22;20011;-93
2022/10/28 21:47:06;;;;;;;40.28;21.55;;;;;;;;;;6314999;22;20030;-95
2022/10/28 21:49:32;;;;;;;41.03;22.23;;;;;;;;;;6314792;22;20006;-94
2022/10/28 21:51:58;;;;;;;41.75;21.85;;;;;;;;;;6315580;22;20003;-94
2022/10/28 21:54:25;;;;;;;41.88;20.55;;;;;;;;;;6314336;22;20482;-95
2022/10/28 21:56:51;;;;;;;42.03;20.60;;;;;;;;;;6314822;22;20002;-94
2022/10/28 21:59:17;;;;;;;42.58;20.73;;;;;;;;;;6315329;22;20002;-95
2022/10/28 22:01:43;;;;;;;45.15;22.38;;;;;;;;;;6315587;22;20006;-94
2022/10/28 22:04:09;;;;;;;41.47;22.05;;;;;;;;;;6315156;22;20098;-95
2022/10/28 22:06:35;;;;;;;46.78;22.35;;;;;;;;;;6315077;22;19999;-94
2022/10/28 22:09:03;;;;;;;54.38;23.80;;;;;;;;;;6314373;22;20011;-94
2022/10/28 22:11:29;;;;;;;44.30;24.10;;;;;;;;;;6315030;22;20003;-94
2022/10/28 22:13:57;;;;;;;48.30;24.13;;;;;;;;;;6322394;22;20003;-92
2022/10/28 22:16:23;;;;;;;46.30;21.17;;;;;;;;;;6334931;22;20407;-91
2022/10/28 22:18:49;;;;;;;51.30;24.25;;;;;;;;;;6318625;22;20003;-94
2022/10/28 22:21:17;;;;;;;60.28;26.70;;;;;;;;;;6314922;22;19998;-95
2022/10/28 22:23:43;;;;;;;49.65;23.67;;;;;;;;;;6314435;22;20562;-94
2022/10/28 22:26:12;;;;;;;52.03;24.75;;;;;;;;;;6341531;22;20450;-95
2022/10/28 22:28:39;;;;;;;52.72;24.77;;;;;;;;;;6314449;22;20119;-95
2022/10/28 22:31:06;;;;;;;51.60;25.33;;;;;;;;;;6314635;22;20006;-94
2022/10/28 22:33:32;;;;;;;50.40;22.10;;;;;;;;;;6314248;22;20010;-95
2022/10/28 22:35:59;;;;;;;55.75;25.02;;;;;;;;;;6314336;22;20443;-95
2022/10/28 22:38:26;;;;;;;50.22;24.65;;;;;;;;;;6314130;22;19999;-94
2022/10/28 22:41:05;;;;;;;51.25;21.15;;;;;;;;;;6313897;22;20328;-95
2022/10/28 22:43:32;;;;;;;48.75;22.60;;;;;;;;;;6313592;22;20003;-95
2022/10/28 22:45:58;;;;;;;45.20;21.00;;;;;;;;;;6314432;22;20011;-94
2022/10/28 22:48:25;;;;;;;53.85;25.63;;;;;;;;;;6314149;22;20003;-95
2022/10/28 22:50:51;;;;;;;48.97;22.98;;;;;;;;;;6314714;22;20040;-96
2022/10/28 22:53:18;;;;;;;57.50;25.50;;;;;;;;;;6314326;22;20412;-93
2022/10/28 22:55:44;;;;;;;55.30;24.20;;;;;;;;;;6314798;22;20021;-94
2022/10/28 22:58:10;;;;;;;54.00;24.40;;;;;;;;;;6314400;22;20049;-95
2022/10/28 23:00:36;;;;;;;52.10;23.08;;;;;;;;;;6315102;22;20026;-94
2022/10/28 23:03:02;;;;;;;57.60;25.42;;;;;;;;;;6314183;22;20003;-94
2022/10/28 23:05:28;;;;;;;55.85;24.30;;;;;;;;;;6314118;22;20011;-94
2022/10/28 23:07:55;;;;;;;55.03;23.88;;;;;;;;;;6312728;22;20006;-95
2022/10/28 23:10:21;;;;;;;55.92;24.00;;;;;;;;;;6314062;22;20431;-94
2022/10/28 23:12:47;;;;;;;58.05;24.98;;;;;;;;;;6313761;22;20002;-95
2022/10/28 23:15:13;;;;;;;60.30;24.10;;;;;;;;;;6314515;22;19999;-94
2022/10/28 23:17:39;;;;;;;56.55;23.88;;;;;;;;;;6314332;22;20030;-95
2022/10/28 23:20:06;;;;;;;57.72;22.85;;;;;;;;;;6313886;22;20010;-93
2022/10/28 23:22:32;;;;;;;51.30;21.75;;;;;;;;;;6314114;22;20099;-94
2022/10/28 23:24:58;;;;;;;48.83;22.42;;;;;;;;;;6313605;22;20013;-94
2022/10/28 23:27:24;;;;;;;52.90;22.45;;;;;;;;;;6313948;22;19999;-96
2022/10/28 23:29:50;;;;;;;51.63;22.30;;;;;;;;;;6314472;22;20051;-93
2022/10/28 23:32:16;;;;;;;53.90;23.20;;;;;;;;;;6313791;22;20005;-94
2022/10/28 23:34:42;;;;;;;51.15;24.25;;;;;;;;;;6314165;22;20484;-92
2022/10/28 23:37:08;;;;;;;69.78;25.10;;;;;;;;;;6314292;22;20051;-94
2022/10/28 23:39:34;;;;;;;51.35;23.50;;;;;;;;;;6313825;22;20009;-93
2022/10/28 23:42:01;;;;;;;57.38;25.25;;;;;;;;;;6313180;22;20030;-95
2022/10/28 23:44:27;;;;;;;55.88;23.95;;;;;;;;;;6313634;22;20003;-94
2022/10/28 23:46:53;;;;;;;54.20;23.15;;;;;;;;;;6314016;22;20007;-93
2022/10/28 23:49:19;;;;;;;53.70;23.77;;;;;;;;;;6313991;22;20129;-94
2022/10/28 23:51:46;;;;;;;63.75;22.60;;;;;;;;;;6313929;22;20045;-95
2022/10/28 23:54:12;;;;;;;57.53;23.30;;;;;;;;;;6313738;22;20006;-93
2022/10/28 23:56:38;;;;;;;59.53;24.50;;;;;;;;;;6314179;22;20305;-93
2022/10/28 23:59:04;;;;;;;45.78;21.20;;;;;;;;;;6314403;22;20002;-94
